sensor_id;sensor_type;location;lat;lon;timestamp;temperature;humidity
18047;DHT22;9148;51.454;13.862;2023-04-02T00:07:52;6.60;99.90
18047;DHT22;9148;51.454;13.862;2023-04-02T00:10:37;6.40;99.90
18047;DHT22;9148;51.454;13.862;2023-04-02T00:15:45;6.40;99.90
18047;DHT22;9148;51.454;13.862;2023-04-02T00:18:14;6.80;99.90
18047;DHT22;9148;51.454;13.862;2023-04-02T00:20:45;6.90;99.90
18047;DHT22;9148;51.454;13.862;2023-04-02T00:23:18;6.90;99.90
18047;DHT22;9148;51.454;13.862;2023-04-02T00:25:45;6.20;99.90
18047;DHT22;9148;51.454;13.862;2023-04-02T00:28:14;6.20;99.90
18047;DHT22;9148;51.454;13.862;2023-04-02T00:30:50;6.10;99.90
18047;DHT22;9148;51.454;13.862;2023-04-02T00:33:24;6.10;99.90
18047;DHT22;9148;51.454;13.862;2023-04-02T00:35:52;6.10;99.90
18047;DHT22;9148;51.454;13.862;2023-04-02T00:38:27;6.00;99.90
18047;DHT22;9148;51.454;13.862;2023-04-02T00:40:58;6.00;99.90
18047;DHT22;9148;51.454;13.862;2023-04-02T00:43:28;6.50;99.90
18047;DHT22;9148;51.454;13.862;2023-04-02T00:45:58;6.30;99.90
18047;DHT22;9148;51.454;13.862;2023-04-02T00:51:21;6.40;99.90
18047;DHT22;9148;51.454;13.862;2023-04-02T00:53:51;5.70;99.90
18047;DHT22;9148;51.454;13.862;2023-04-02T00:56:24;6.30;99.90
18047;DHT22;9148;51.454;13.862;2023-04-02T00:58:54;5.70;99.90
18047;DHT22;9148;51.454;13.862;2023-04-02T01:01:26;5.60;99.90
18047;DHT22;9148;51.454;13.862;2023-04-02T01:03:59;5.30;99.90
18047;DHT22;9148;51.454;13.862;2023-04-02T01:06:35;6.10;99.90
18047;DHT22;9148;51.454;13.862;2023-04-02T01:09:14;6.30;99.90
18047;DHT22;9148;51.454;13.862;2023-04-02T01:14:46;5.70;99.90
18047;DHT22;9148;51.454;13.862;2023-04-02T01:17:29;5.50;99.90
18047;DHT22;9148;51.454;13.862;2023-04-02T01:20:50;5.50;99.90
18047;DHT22;9148;51.454;13.862;2023-04-02T01:23:59;5.50;99.90
18047;DHT22;9148;51.454;13.862;2023-04-02T01:26:51;5.40;99.90
18047;DHT22;9148;51.454;13.862;2023-04-02T01:31:54;5.30;99.90
18047;DHT22;9148;51.454;13.862;2023-04-02T01:34:26;5.30;99.90
18047;DHT22;9148;51.454;13.862;2023-04-02T01:37:09;5.40;99.90
18047;DHT22;9148;51.454;13.862;2023-04-02T01:45:51;5.30;99.90
18047;DHT22;9148;51.454;13.862;2023-04-02T01:48:21;5.30;99.90
18047;DHT22;9148;51.454;13.862;2023-04-02T01:50:50;5.30;99.90
18047;DHT22;9148;51.454;13.862;2023-04-02T01:53:20;5.30;99.90
18047;DHT22;9148;51.454;13.862;2023-04-02T01:55:55;5.30;99.90
18047;DHT22;9148;51.454;13.862;2023-04-02T01:58:29;5.40;99.90
18047;DHT22;9148;51.454;13.862;2023-04-02T02:01:00;5.70;99.90
18047;DHT22;9148;51.454;13.862;2023-04-02T02:03:28;5.30;99.90
18047;DHT22;9148;51.454;13.862;2023-04-02T02:05:55;5.30;99.90
18047;DHT22;9148;51.454;13.862;2023-04-02T02:08:37;5.20;99.90
18047;DHT22;9148;51.454;13.862;2023-04-02T02:11:06;5.30;99.90
18047;DHT22;9148;51.454;13.862;2023-04-02T02:13:35;5.30;99.90
18047;DHT22;9148;51.454;13.862;2023-04-02T02:16:02;5.80;99.90
18047;DHT22;9148;51.454;13.862;2023-04-02T02:18:29;5.10;99.90
18047;DHT22;9148;51.454;13.862;2023-04-02T02:20:57;5.00;99.90
18047;DHT22;9148;51.454;13.862;2023-04-02T02:23:24;5.10;99.90
18047;DHT22;9148;51.454;13.862;2023-04-02T02:25:53;5.10;99.90
18047;DHT22;9148;51.454;13.862;2023-04-02T02:28:22;5.00;99.90
18047;DHT22;9148;51.454;13.862;2023-04-02T02:30:59;5.00;99.90
18047;DHT22;9148;51.454;13.862;2023-04-02T02:33:36;5.00;99.90
18047;DHT22;9148;51.454;13.862;2023-04-02T02:39:23;5.10;99.90
18047;DHT22;9148;51.454;13.862;2023-04-02T02:42:13;5.10;99.90
18047;DHT22;9148;51.454;13.862;2023-04-02T02:44:49;5.00;99.90
18047;DHT22;9148;51.454;13.862;2023-04-02T02:47:23;5.00;99.90
18047;DHT22;9148;51.454;13.862;2023-04-02T02:50:00;4.90;99.90
18047;DHT22;9148;51.454;13.862;2023-04-02T02:52:31;4.90;99.90
18047;DHT22;9148;51.454;13.862;2023-04-02T02:55:21;4.90;99.90
18047;DHT22;9148;51.454;13.862;2023-04-02T03:00:37;4.80;99.90
18047;DHT22;9148;51.454;13.862;2023-04-02T03:03:09;5.60;99.90
18047;DHT22;9148;51.454;13.862;2023-04-02T03:05:39;4.80;99.90
18047;DHT22;9148;51.454;13.862;2023-04-02T03:08:08;4.80;99.90
18047;DHT22;9148;51.454;13.862;2023-04-02T03:10:46;5.40;99.90
18047;DHT22;9148;51.454;13.862;2023-04-02T03:13:26;4.70;99.90
18047;DHT22;9148;51.454;13.862;2023-04-02T03:19:16;4.60;99.90
18047;DHT22;9148;51.454;13.862;2023-04-02T03:21:54;4.60;99.90
18047;DHT22;9148;51.454;13.862;2023-04-02T03:24:45;4.50;99.90
18047;DHT22;9148;51.454;13.862;2023-04-02T03:27:23;4.50;99.90
18047;DHT22;9148;51.454;13.862;2023-04-02T03:33:00;4.50;99.90
18047;DHT22;9148;51.454;13.862;2023-04-02T03:36:15;4.50;99.90
18047;DHT22;9148;51.454;13.862;2023-04-02T03:38:49;4.50;99.90
18047;DHT22;9148;51.454;13.862;2023-04-02T03:41:20;4.40;99.90
18047;DHT22;9148;51.454;13.862;2023-04-02T03:43:58;4.50;99.90
18047;DHT22;9148;51.454;13.862;2023-04-02T03:46:42;4.10;99.90
18047;DHT22;9148;51.454;13.862;2023-04-02T03:49:39;4.40;99.90
18047;DHT22;9148;51.454;13.862;2023-04-02T03:52:13;4.40;99.90
18047;DHT22;9148;51.454;13.862;2023-04-02T03:54:44;4.40;99.90
18047;DHT22;9148;51.454;13.862;2023-04-02T03:57:21;4.40;99.90
18047;DHT22;9148;51.454;13.862;2023-04-02T04:02:44;4.30;99.90
18047;DHT22;9148;51.454;13.862;2023-04-02T04:05:28;4.30;99.90
18047;DHT22;9148;51.454;13.862;2023-04-02T04:08:02;4.20;99.90
18047;DHT22;9148;51.454;13.862;2023-04-02T04:10:31;4.20;99.90
18047;DHT22;9148;51.454;13.862;2023-04-02T04:13:07;4.10;99.90
18047;DHT22;9148;51.454;13.862;2023-04-02T04:15:41;4.10;99.90
18047;DHT22;9148;51.454;13.862;2023-04-02T04:20:49;4.00;99.90
18047;DHT22;9148;51.454;13.862;2023-04-02T04:23:28;4.90;99.90
18047;DHT22;9148;51.454;13.862;2023-04-02T04:26:06;4.00;99.90
18047;DHT22;9148;51.454;13.862;2023-04-02T04:29:14;4.10;99.90
18047;DHT22;9148;51.454;13.862;2023-04-02T04:31:50;4.10;99.90
18047;DHT22;9148;51.454;13.862;2023-04-02T04:34:39;4.00;99.90
18047;DHT22;9148;51.454;13.862;2023-04-02T04:37:24;4.00;99.90
18047;DHT22;9148;51.454;13.862;2023-04-02T04:40:04;4.00;99.90
18047;DHT22;9148;51.454;13.862;2023-04-02T04:42:41;4.00;99.90
18047;DHT22;9148;51.454;13.862;2023-04-02T04:45:22;3.60;99.90
18047;DHT22;9148;51.454;13.862;2023-04-02T04:48:24;4.00;99.90
18047;DHT22;9148;51.454;13.862;2023-04-02T04:51:01;3.90;99.90
18047;DHT22;9148;51.454;13.862;2023-04-02T04:53:50;4.00;99.90
18047;DHT22;9148;51.454;13.862;2023-04-02T04:56:26;4.00;99.90
18047;DHT22;9148;51.454;13.862;2023-04-02T04:58:56;4.00;99.90
18047;DHT22;9148;51.454;13.862;2023-04-02T05:02:03;4.00;99.90
18047;DHT22;9148;51.454;13.862;2023-04-02T05:04:45;4.00;99.90
18047;DHT22;9148;51.454;13.862;2023-04-02T05:07:18;4.00;99.90
18047;DHT22;9148;51.454;13.862;2023-04-02T05:12:55;3.20;99.90
18047;DHT22;9148;51.454;13.862;2023-04-02T05:15:48;4.00;99.90
18047;DHT22;9148;51.454;13.862;2023-04-02T05:18:40;4.00;99.90
18047;DHT22;9148;51.454;13.862;2023-04-02T05:23:58;4.00;99.90
18047;DHT22;9148;51.454;13.862;2023-04-02T05:26:45;3.90;99.90
18047;DHT22;9148;51.454;13.862;2023-04-02T05:29:21;4.00;99.90
18047;DHT22;9148;51.454;13.862;2023-04-02T05:31:59;4.70;99.90
18047;DHT22;9148;51.454;13.862;2023-04-02T05:34:32;4.00;99.90
18047;DHT22;9148;51.454;13.862;2023-04-02T05:37:01;4.00;99.90
18047;DHT22;9148;51.454;13.862;2023-04-02T05:39:28;4.00;99.90
18047;DHT22;9148;51.454;13.862;2023-04-02T05:42:01;3.90;99.90
18047;DHT22;9148;51.454;13.862;2023-04-02T05:44:31;3.90;99.90
18047;DHT22;9148;51.454;13.862;2023-04-02T05:47:03;3.90;99.90
18047;DHT22;9148;51.454;13.862;2023-04-02T05:52:40;3.90;99.90
18047;DHT22;9148;51.454;13.862;2023-04-02T05:57:48;3.90;99.90
18047;DHT22;9148;51.454;13.862;2023-04-02T06:00:53;3.90;99.90
18047;DHT22;9148;51.454;13.862;2023-04-02T06:09:19;4.00;99.90
18047;DHT22;9148;51.454;13.862;2023-04-02T06:11:54;4.00;99.90
18047;DHT22;9148;51.454;13.862;2023-04-02T06:14:24;4.10;99.90
18047;DHT22;9148;51.454;13.862;2023-04-02T06:16:49;4.00;99.90
18047;DHT22;9148;51.454;13.862;2023-04-02T06:19:21;4.10;99.90
18047;DHT22;9148;51.454;13.862;2023-04-02T06:21:51;4.10;99.90
18047;DHT22;9148;51.454;13.862;2023-04-02T06:24:24;4.60;99.90
18047;DHT22;9148;51.454;13.862;2023-04-02T06:27:00;4.20;99.90
18047;DHT22;9148;51.454;13.862;2023-04-02T06:29:33;4.20;99.90
18047;DHT22;9148;51.454;13.862;2023-04-02T06:32:06;5.00;99.90
18047;DHT22;9148;51.454;13.862;2023-04-02T06:34:36;4.20;99.90
18047;DHT22;9148;51.454;13.862;2023-04-02T06:37:18;4.20;99.90
18047;DHT22;9148;51.454;13.862;2023-04-02T06:39:48;4.30;99.90
18047;DHT22;9148;51.454;13.862;2023-04-02T06:42:26;4.30;99.90
18047;DHT22;9148;51.454;13.862;2023-04-02T06:44:54;4.30;99.90
18047;DHT22;9148;51.454;13.862;2023-04-02T06:47:36;4.30;99.90
18047;DHT22;9148;51.454;13.862;2023-04-02T06:50:15;4.30;99.90
18047;DHT22;9148;51.454;13.862;2023-04-02T06:52:50;4.30;99.90
18047;DHT22;9148;51.454;13.862;2023-04-02T06:55:28;4.30;99.90
18047;DHT22;9148;51.454;13.862;2023-04-02T06:57:59;4.40;99.90
18047;DHT22;9148;51.454;13.862;2023-04-02T07:00:35;4.30;99.90
18047;DHT22;9148;51.454;13.862;2023-04-02T07:03:06;4.50;99.90
18047;DHT22;9148;51.454;13.862;2023-04-02T07:05:40;4.40;99.90
18047;DHT22;9148;51.454;13.862;2023-04-02T07:08:05;4.40;99.90
18047;DHT22;9148;51.454;13.862;2023-04-02T07:10:32;4.50;99.90
18047;DHT22;9148;51.454;13.862;2023-04-02T07:12:58;4.50;99.90
18047;DHT22;9148;51.454;13.862;2023-04-02T07:15:26;4.60;99.90
18047;DHT22;9148;51.454;13.862;2023-04-02T07:17:53;4.60;99.90
18047;DHT22;9148;51.454;13.862;2023-04-02T07:20:33;4.60;99.90
18047;DHT22;9148;51.454;13.862;2023-04-02T07:23:02;4.70;99.90
18047;DHT22;9148;51.454;13.862;2023-04-02T07:25:28;5.50;99.90
18047;DHT22;9148;51.454;13.862;2023-04-02T07:27:54;4.70;99.90
18047;DHT22;9148;51.454;13.862;2023-04-02T07:30:20;4.70;99.90
18047;DHT22;9148;51.454;13.862;2023-04-02T07:32:46;4.70;99.90
18047;DHT22;9148;51.454;13.862;2023-04-02T07:35:12;4.70;99.90
18047;DHT22;9148;51.454;13.862;2023-04-02T07:37:38;4.70;99.90
18047;DHT22;9148;51.454;13.862;2023-04-02T07:40:16;4.50;99.90
18047;DHT22;9148;51.454;13.862;2023-04-02T07:42:45;4.70;99.90
18047;DHT22;9148;51.454;13.862;2023-04-02T07:45:11;4.00;99.90
18047;DHT22;9148;51.454;13.862;2023-04-02T07:47:37;4.60;99.90
18047;DHT22;9148;51.454;13.862;2023-04-02T07:50:04;4.60;99.90
18047;DHT22;9148;51.454;13.862;2023-04-02T07:52:32;4.60;99.90
18047;DHT22;9148;51.454;13.862;2023-04-02T07:54:59;4.50;99.90
18047;DHT22;9148;51.454;13.862;2023-04-02T07:57:26;4.50;99.90
18047;DHT22;9148;51.454;13.862;2023-04-02T07:59:52;4.50;99.90
18047;DHT22;9148;51.454;13.862;2023-04-02T08:02:21;4.60;99.90
18047;DHT22;9148;51.454;13.862;2023-04-02T08:04:48;4.60;99.90
18047;DHT22;9148;51.454;13.862;2023-04-02T08:07:15;4.50;99.90
18047;DHT22;9148;51.454;13.862;2023-04-02T08:09:42;4.50;99.90
18047;DHT22;9148;51.454;13.862;2023-04-02T08:12:11;4.60;99.90
18047;DHT22;9148;51.454;13.862;2023-04-02T08:14:38;4.60;99.90
18047;DHT22;9148;51.454;13.862;2023-04-02T08:17:03;4.60;99.90
18047;DHT22;9148;51.454;13.862;2023-04-02T08:19:29;4.60;99.90
18047;DHT22;9148;51.454;13.862;2023-04-02T08:21:55;4.50;99.90
18047;DHT22;9148;51.454;13.862;2023-04-02T08:24:21;4.50;99.90
18047;DHT22;9148;51.454;13.862;2023-04-02T08:26:48;5.30;99.90
18047;DHT22;9148;51.454;13.862;2023-04-02T08:29:15;4.50;99.90
18047;DHT22;9148;51.454;13.862;2023-04-02T08:31:41;4.60;99.90
18047;DHT22;9148;51.454;13.862;2023-04-02T08:34:07;4.50;99.90
18047;DHT22;9148;51.454;13.862;2023-04-02T08:36:35;4.50;99.90
18047;DHT22;9148;51.454;13.862;2023-04-02T08:39:03;4.90;99.90
18047;DHT22;9148;51.454;13.862;2023-04-02T08:41:40;4.90;99.90
18047;DHT22;9148;51.454;13.862;2023-04-02T08:44:14;4.60;99.90
18047;DHT22;9148;51.454;13.862;2023-04-02T08:47:06;4.70;99.90
18047;DHT22;9148;51.454;13.862;2023-04-02T08:49:41;4.60;99.90
18047;DHT22;9148;51.454;13.862;2023-04-02T08:52:27;4.60;99.90
18047;DHT22;9148;51.454;13.862;2023-04-02T08:54:54;4.60;99.90
18047;DHT22;9148;51.454;13.862;2023-04-02T09:00:35;4.70;99.90
18047;DHT22;9148;51.454;13.862;2023-04-02T09:06:17;4.70;99.90
18047;DHT22;9148;51.454;13.862;2023-04-02T09:08:46;4.90;99.90
18047;DHT22;9148;51.454;13.862;2023-04-02T09:11:37;4.70;99.90
18047;DHT22;9148;51.454;13.862;2023-04-02T09:14:14;5.50;99.90
18047;DHT22;9148;51.454;13.862;2023-04-02T09:16:45;4.90;99.90
18047;DHT22;9148;51.454;13.862;2023-04-02T09:19:35;5.00;99.90
18047;DHT22;9148;51.454;13.862;2023-04-02T09:24:33;5.20;99.90
18047;DHT22;9148;51.454;13.862;2023-04-02T09:26:59;5.20;99.90
18047;DHT22;9148;51.454;13.862;2023-04-02T09:32:26;5.30;99.90
18047;DHT22;9148;51.454;13.862;2023-04-02T09:37:38;5.50;99.90
18047;DHT22;9148;51.454;13.862;2023-04-02T09:40:25;5.50;99.90
18047;DHT22;9148;51.454;13.862;2023-04-02T09:43:15;5.60;99.90
18047;DHT22;9148;51.454;13.862;2023-04-02T09:45:43;5.60;99.90
18047;DHT22;9148;51.454;13.862;2023-04-02T09:53:46;5.60;99.90
18047;DHT22;9148;51.454;13.862;2023-04-02T09:56:14;5.70;99.90
18047;DHT22;9148;51.454;13.862;2023-04-02T10:04:32;6.00;99.90
18047;DHT22;9148;51.454;13.862;2023-04-02T10:07:04;6.10;99.90
18047;DHT22;9148;51.454;13.862;2023-04-02T10:09:35;6.00;99.90
18047;DHT22;9148;51.454;13.862;2023-04-02T10:12:05;6.40;99.90
18047;DHT22;9148;51.454;13.862;2023-04-02T10:14:38;6.20;99.90
18047;DHT22;9148;51.454;13.862;2023-04-02T10:17:23;6.20;99.90
18047;DHT22;9148;51.454;13.862;2023-04-02T10:20:01;6.30;99.90
18047;DHT22;9148;51.454;13.862;2023-04-02T10:22:31;7.00;99.90
18047;DHT22;9148;51.454;13.862;2023-04-02T10:25:00;6.30;99.90
18047;DHT22;9148;51.454;13.862;2023-04-02T10:27:33;6.40;99.90
18047;DHT22;9148;51.454;13.862;2023-04-02T10:30:25;6.40;99.90
18047;DHT22;9148;51.454;13.862;2023-04-02T10:38:54;6.60;99.90
18047;DHT22;9148;51.454;13.862;2023-04-02T10:41:30;6.60;99.90
18047;DHT22;9148;51.454;13.862;2023-04-02T10:44:08;7.10;99.90
18047;DHT22;9148;51.454;13.862;2023-04-02T10:50:10;6.70;99.90
18047;DHT22;9148;51.454;13.862;2023-04-02T10:52:58;6.70;99.90
18047;DHT22;9148;51.454;13.862;2023-04-02T10:55:43;6.70;99.90
18047;DHT22;9148;51.454;13.862;2023-04-02T10:58:25;6.80;99.90
18047;DHT22;9148;51.454;13.862;2023-04-02T11:00:58;6.80;99.90
18047;DHT22;9148;51.454;13.862;2023-04-02T11:03:33;6.80;99.90
18047;DHT22;9148;51.454;13.862;2023-04-02T11:06:18;6.80;99.90
18047;DHT22;9148;51.454;13.862;2023-04-02T11:08:49;6.90;99.90
18047;DHT22;9148;51.454;13.862;2023-04-02T11:14:40;7.00;99.90
18047;DHT22;9148;51.454;13.862;2023-04-02T11:16:48;7.10;99.90
18047;DHT22;9148;51.454;13.862;2023-04-02T11:29:51;7.30;99.90
18047;DHT22;9148;51.454;13.862;2023-04-02T11:32:27;7.40;99.90
18047;DHT22;9148;51.454;13.862;2023-04-02T11:34:58;7.40;99.90
18047;DHT22;9148;51.454;13.862;2023-04-02T11:37:35;7.40;99.90
18047;DHT22;9148;51.454;13.862;2023-04-02T11:42:38;7.40;99.90
18047;DHT22;9148;51.454;13.862;2023-04-02T11:55:35;7.30;99.90
18047;DHT22;9148;51.454;13.862;2023-04-02T11:58:28;7.30;99.90
18047;DHT22;9148;51.454;13.862;2023-04-02T12:09:52;7.20;99.90
18047;DHT22;9148;51.454;13.862;2023-04-02T12:14:50;7.00;99.90
18047;DHT22;9148;51.454;13.862;2023-04-02T12:17:25;6.80;99.90
18047;DHT22;9148;51.454;13.862;2023-04-02T12:19:56;6.90;99.90
18047;DHT22;9148;51.454;13.862;2023-04-02T12:22:27;6.80;99.90
18047;DHT22;9148;51.454;13.862;2023-04-02T12:25:00;6.80;99.90
18047;DHT22;9148;51.454;13.862;2023-04-02T12:27:29;6.80;99.90
18047;DHT22;9148;51.454;13.862;2023-04-02T12:30:10;7.20;99.90
18047;DHT22;9148;51.454;13.862;2023-04-02T12:32:46;6.90;99.90
18047;DHT22;9148;51.454;13.862;2023-04-02T12:35:29;7.00;99.90
18047;DHT22;9148;51.454;13.862;2023-04-02T12:37:57;7.00;99.90
18047;DHT22;9148;51.454;13.862;2023-04-02T12:40:24;7.40;99.90
18047;DHT22;9148;51.454;13.862;2023-04-02T12:42:50;7.00;99.90
18047;DHT22;9148;51.454;13.862;2023-04-02T12:45:31;7.40;99.90
18047;DHT22;9148;51.454;13.862;2023-04-02T12:48:00;7.00;99.90
18047;DHT22;9148;51.454;13.862;2023-04-02T12:50:28;7.20;99.90
18047;DHT22;9148;51.454;13.862;2023-04-02T12:52:54;7.00;99.90
18047;DHT22;9148;51.454;13.862;2023-04-02T12:55:24;7.70;99.90
18047;DHT22;9148;51.454;13.862;2023-04-02T12:57:58;7.00;99.90
18047;DHT22;9148;51.454;13.862;2023-04-02T13:05:36;6.90;99.90
18047;DHT22;9148;51.454;13.862;2023-04-02T13:08:04;7.20;99.90
18047;DHT22;9148;51.454;13.862;2023-04-02T13:10:30;6.80;99.90
18047;DHT22;9148;51.454;13.862;2023-04-02T13:13:01;7.50;99.90
18047;DHT22;9148;51.454;13.862;2023-04-02T13:15:32;6.90;99.90
18047;DHT22;9148;51.454;13.862;2023-04-02T13:18:18;7.00;99.90
18047;DHT22;9148;51.454;13.862;2023-04-02T13:21:05;7.00;99.90
18047;DHT22;9148;51.454;13.862;2023-04-02T13:23:46;6.90;99.90
18047;DHT22;9148;51.454;13.862;2023-04-02T13:26:26;7.60;99.90
18047;DHT22;9148;51.454;13.862;2023-04-02T13:28:58;7.50;99.90
18047;DHT22;9148;51.454;13.862;2023-04-02T13:31:42;7.30;99.90
18047;DHT22;9148;51.454;13.862;2023-04-02T13:34:08;7.00;99.90
18047;DHT22;9148;51.454;13.862;2023-04-02T13:36:34;6.90;99.90
18047;DHT22;9148;51.454;13.862;2023-04-02T13:39:00;7.60;99.90
18047;DHT22;9148;51.454;13.862;2023-04-02T13:41:27;7.00;99.90
18047;DHT22;9148;51.454;13.862;2023-04-02T13:43:57;7.50;99.90
18047;DHT22;9148;51.454;13.862;2023-04-02T13:46:31;7.50;99.90
18047;DHT22;9148;51.454;13.862;2023-04-02T13:48:58;6.90;99.90
18047;DHT22;9148;51.454;13.862;2023-04-02T13:51:41;7.40;99.90
18047;DHT22;9148;51.454;13.862;2023-04-02T13:54:22;6.90;99.90
18047;DHT22;9148;51.454;13.862;2023-04-02T13:56:53;6.90;99.90
18047;DHT22;9148;51.454;13.862;2023-04-02T13:59:20;6.90;99.90
18047;DHT22;9148;51.454;13.862;2023-04-02T14:01:46;6.90;99.90
18047;DHT22;9148;51.454;13.862;2023-04-02T14:04:16;6.80;99.90
18047;DHT22;9148;51.454;13.862;2023-04-02T14:15:44;6.80;99.90
18047;DHT22;9148;51.454;13.862;2023-04-02T14:27:21;7.10;99.90
18047;DHT22;9148;51.454;13.862;2023-04-02T14:30:24;6.90;99.90
18047;DHT22;9148;51.454;13.862;2023-04-02T14:33:01;6.90;99.90
18047;DHT22;9148;51.454;13.862;2023-04-02T14:35:41;6.90;99.90
18047;DHT22;9148;51.454;13.862;2023-04-02T14:41:23;6.90;99.90
18047;DHT22;9148;51.454;13.862;2023-04-02T14:44:04;6.90;99.90
18047;DHT22;9148;51.454;13.862;2023-04-02T14:46:32;6.90;99.90
18047;DHT22;9148;51.454;13.862;2023-04-02T14:49:19;6.90;99.90
18047;DHT22;9148;51.454;13.862;2023-04-02T14:52:10;6.90;99.90
18047;DHT22;9148;51.454;13.862;2023-04-02T14:54:47;7.70;99.90
18047;DHT22;9148;51.454;13.862;2023-04-02T14:57:35;7.40;99.90
18047;DHT22;9148;51.454;13.862;2023-04-02T15:03:18;7.00;99.90
18047;DHT22;9148;51.454;13.862;2023-04-02T15:05:57;7.10;99.90
18047;DHT22;9148;51.454;13.862;2023-04-02T15:08:29;7.20;99.90
18047;DHT22;9148;51.454;13.862;2023-04-02T15:11:17;7.20;99.90
18047;DHT22;9148;51.454;13.862;2023-04-02T15:16:43;7.40;99.90
18047;DHT22;9148;51.454;13.862;2023-04-02T15:19:12;7.40;99.90
18047;DHT22;9148;51.454;13.862;2023-04-02T15:24:33;7.50;99.90
18047;DHT22;9148;51.454;13.862;2023-04-02T15:27:45;7.60;99.90
18047;DHT22;9148;51.454;13.862;2023-04-02T15:30:26;7.70;99.90
18047;DHT22;9148;51.454;13.862;2023-04-02T15:32:57;7.70;99.90
18047;DHT22;9148;51.454;13.862;2023-04-02T15:36:11;7.70;99.90
18047;DHT22;9148;51.454;13.862;2023-04-02T15:41:27;7.70;99.90
18047;DHT22;9148;51.454;13.862;2023-04-02T15:44:05;7.80;99.90
18047;DHT22;9148;51.454;13.862;2023-04-02T15:46:50;8.00;99.90
18047;DHT22;9148;51.454;13.862;2023-04-02T15:52:35;7.70;99.90
18047;DHT22;9148;51.454;13.862;2023-04-02T15:55:18;7.70;99.90
18047;DHT22;9148;51.454;13.862;2023-04-02T16:03:48;7.60;99.40
18047;DHT22;9148;51.454;13.862;2023-04-02T16:12:18;7.50;99.70
18047;DHT22;9148;51.454;13.862;2023-04-02T16:14:46;7.50;99.80
18047;DHT22;9148;51.454;13.862;2023-04-02T16:17:25;8.20;99.90
18047;DHT22;9148;51.454;13.862;2023-04-02T16:20:30;7.90;99.90
18047;DHT22;9148;51.454;13.862;2023-04-02T16:23:06;7.40;99.80
18047;DHT22;9148;51.454;13.862;2023-04-02T16:25:53;7.40;99.80
18047;DHT22;9148;51.454;13.862;2023-04-02T16:28:32;7.30;99.90
18047;DHT22;9148;51.454;13.862;2023-04-02T16:31:14;7.80;99.90
18047;DHT22;9148;51.454;13.862;2023-04-02T16:33:59;7.30;99.90
18047;DHT22;9148;51.454;13.862;2023-04-02T16:39:55;7.50;99.90
18047;DHT22;9148;51.454;13.862;2023-04-02T16:45:40;7.20;99.90
18047;DHT22;9148;51.454;13.862;2023-04-02T16:48:46;7.20;99.90
18047;DHT22;9148;51.454;13.862;2023-04-02T16:51:40;7.20;99.90
18047;DHT22;9148;51.454;13.862;2023-04-02T17:00:05;7.10;99.90
18047;DHT22;9148;51.454;13.862;2023-04-02T17:03:30;7.20;99.90
18047;DHT22;9148;51.454;13.862;2023-04-02T17:06:06;7.10;99.90
18047;DHT22;9148;51.454;13.862;2023-04-02T17:08:49;7.10;99.90
18047;DHT22;9148;51.454;13.862;2023-04-02T17:11:22;7.10;99.90
18047;DHT22;9148;51.454;13.862;2023-04-02T17:14:11;7.00;99.90
18047;DHT22;9148;51.454;13.862;2023-04-02T17:16:45;7.60;99.90
18047;DHT22;9148;51.454;13.862;2023-04-02T17:19:13;7.00;99.90
18047;DHT22;9148;51.454;13.862;2023-04-02T17:21:43;6.90;99.90
18047;DHT22;9148;51.454;13.862;2023-04-02T17:27:30;7.00;99.90
18047;DHT22;9148;51.454;13.862;2023-04-02T17:30:11;7.10;99.90
18047;DHT22;9148;51.454;13.862;2023-04-02T17:32:47;6.90;99.90
18047;DHT22;9148;51.454;13.862;2023-04-02T17:35:32;7.00;99.90
18047;DHT22;9148;51.454;13.862;2023-04-02T17:40:55;7.00;99.90
18047;DHT22;9148;51.454;13.862;2023-04-02T17:55:27;6.90;99.90
18047;DHT22;9148;51.454;13.862;2023-04-02T17:58:28;6.90;99.90
18047;DHT22;9148;51.454;13.862;2023-04-02T18:01:22;6.40;99.90
18047;DHT22;9148;51.454;13.862;2023-04-02T18:03:55;6.80;99.90
18047;DHT22;9148;51.454;13.862;2023-04-02T18:09:46;6.80;99.90
18047;DHT22;9148;51.454;13.862;2023-04-02T18:12:54;6.70;99.90
18047;DHT22;9148;51.454;13.862;2023-04-02T18:15:34;6.70;99.90
18047;DHT22;9148;51.454;13.862;2023-04-02T18:18:29;6.70;99.90
18047;DHT22;9148;51.454;13.862;2023-04-02T18:21:27;6.60;99.90
18047;DHT22;9148;51.454;13.862;2023-04-02T18:24:27;6.60;99.90
18047;DHT22;9148;51.454;13.862;2023-04-02T18:29:47;6.50;99.90
18047;DHT22;9148;51.454;13.862;2023-04-02T18:32:37;6.50;99.90
18047;DHT22;9148;51.454;13.862;2023-04-02T18:35:33;6.40;99.90
18047;DHT22;9148;51.454;13.862;2023-04-02T18:41:02;6.50;99.90
18047;DHT22;9148;51.454;13.862;2023-04-02T18:46:55;6.30;99.90
18047;DHT22;9148;51.454;13.862;2023-04-02T18:49:38;6.30;99.90
18047;DHT22;9148;51.454;13.862;2023-04-02T18:52:15;6.30;99.90
18047;DHT22;9148;51.454;13.862;2023-04-02T18:54:47;6.30;99.90
18047;DHT22;9148;51.454;13.862;2023-04-02T18:57:21;6.20;99.90
18047;DHT22;9148;51.454;13.862;2023-04-02T19:02:56;6.20;99.90
18047;DHT22;9148;51.454;13.862;2023-04-02T19:08:38;6.10;99.90
18047;DHT22;9148;51.454;13.862;2023-04-02T19:11:11;6.10;99.90
18047;DHT22;9148;51.454;13.862;2023-04-02T19:13:39;6.50;99.90
18047;DHT22;9148;51.454;13.862;2023-04-02T19:16:20;6.00;99.90
18047;DHT22;9148;51.454;13.862;2023-04-02T19:19:14;6.20;99.90
18047;DHT22;9148;51.454;13.862;2023-04-02T19:22:13;6.00;99.90
18047;DHT22;9148;51.454;13.862;2023-04-02T19:33:40;6.00;99.90
18047;DHT22;9148;51.454;13.862;2023-04-02T19:36:50;6.00;99.90
18047;DHT22;9148;51.454;13.862;2023-04-02T19:39:48;6.60;99.90
18047;DHT22;9148;51.454;13.862;2023-04-02T19:42:43;6.00;99.90
18047;DHT22;9148;51.454;13.862;2023-04-02T19:45:39;6.00;99.90
18047;DHT22;9148;51.454;13.862;2023-04-02T19:48:20;5.90;99.90
18047;DHT22;9148;51.454;13.862;2023-04-02T19:50:48;5.90;99.90
18047;DHT22;9148;51.454;13.862;2023-04-02T19:53:15;5.90;99.90
18047;DHT22;9148;51.454;13.862;2023-04-02T19:55:41;6.70;99.90
18047;DHT22;9148;51.454;13.862;2023-04-02T19:58:31;5.80;99.90
18047;DHT22;9148;51.454;13.862;2023-04-02T20:01:10;5.90;99.90
18047;DHT22;9148;51.454;13.862;2023-04-02T20:03:36;5.90;99.90
18047;DHT22;9148;51.454;13.862;2023-04-02T20:06:02;5.90;99.90
18047;DHT22;9148;51.454;13.862;2023-04-02T20:08:27;5.90;99.90
18047;DHT22;9148;51.454;13.862;2023-04-02T20:10:54;5.90;99.90
18047;DHT22;9148;51.454;13.862;2023-04-02T20:13:22;6.50;99.90
18047;DHT22;9148;51.454;13.862;2023-04-02T20:15:48;5.70;99.90
18047;DHT22;9148;51.454;13.862;2023-04-02T20:18:15;5.70;99.90
18047;DHT22;9148;51.454;13.862;2023-04-02T20:20:45;5.70;99.90
18047;DHT22;9148;51.454;13.862;2023-04-02T20:23:11;5.70;99.90
18047;DHT22;9148;51.454;13.862;2023-04-02T20:25:37;5.70;99.90
18047;DHT22;9148;51.454;13.862;2023-04-02T20:28:03;5.70;99.90
18047;DHT22;9148;51.454;13.862;2023-04-02T20:30:29;5.70;99.90
18047;DHT22;9148;51.454;13.862;2023-04-02T20:32:59;5.60;99.90
18047;DHT22;9148;51.454;13.862;2023-04-02T20:35:25;5.70;99.90
18047;DHT22;9148;51.454;13.862;2023-04-02T20:37:50;6.10;99.90
18047;DHT22;9148;51.454;13.862;2023-04-02T20:40:16;5.60;99.90
18047;DHT22;9148;51.454;13.862;2023-04-02T20:42:42;5.50;99.90